Аэропорт: Орск. Орск

ICAO: UWOR

METAR:
2018/05/20 23:00
UWOR 202300Z 24005MPS CAVOK 17/06 Q1017 R25/CLRD65 NOSIG RMK QFE739/0986
METAR:
2015/12/20 18:00
TAF UWOR 201700Z 2018/2103 15010G15MPS 2000 SN BLSN OVC007 
      TEMPO 2018/2024 19015MPS 1200 SN BLSN OVC005